sensor_id;sensor_type;location;lat;lon;timestamp;temperature;humidity
32865;DHT22;19219;44.500;11.188;2023-04-01T00:00:56;11.70;99.90
32865;DHT22;19219;44.500;11.188;2023-04-01T00:03:23;11.70;99.90
32865;DHT22;19219;44.500;11.188;2023-04-01T00:05:49;11.60;99.90
32865;DHT22;19219;44.500;11.188;2023-04-01T00:08:15;11.50;99.90
32865;DHT22;19219;44.500;11.188;2023-04-01T00:10:41;11.40;99.90
32865;DHT22;19219;44.500;11.188;2023-04-01T00:13:07;11.30;99.90
32865;DHT22;19219;44.500;11.188;2023-04-01T00:15:32;11.30;99.90
32865;DHT22;19219;44.500;11.188;2023-04-01T00:17:58;11.30;99.90
32865;DHT22;19219;44.500;11.188;2023-04-01T00:20:25;11.30;99.90
32865;DHT22;19219;44.500;11.188;2023-04-01T00:22:51;11.50;99.90
32865;DHT22;19219;44.500;11.188;2023-04-01T00:25:17;11.50;99.90
32865;DHT22;19219;44.500;11.188;2023-04-01T00:27:42;11.60;99.90
32865;DHT22;19219;44.500;11.188;2023-04-01T00:30:09;11.70;99.90
32865;DHT22;19219;44.500;11.188;2023-04-01T00:32:35;11.70;99.90
32865;DHT22;19219;44.500;11.188;2023-04-01T00:35:01;11.60;99.90
32865;DHT22;19219;44.500;11.188;2023-04-01T00:37:28;11.60;99.90
32865;DHT22;19219;44.500;11.188;2023-04-01T00:39:54;11.50;99.90
32865;DHT22;19219;44.500;11.188;2023-04-01T00:42:20;11.50;99.90
32865;DHT22;19219;44.500;11.188;2023-04-01T00:44:53;11.60;99.90
32865;DHT22;19219;44.500;11.188;2023-04-01T00:47:19;11.60;99.90
32865;DHT22;19219;44.500;11.188;2023-04-01T00:49:47;11.70;99.90
32865;DHT22;19219;44.500;11.188;2023-04-01T00:52:16;11.80;99.90
32865;DHT22;19219;44.500;11.188;2023-04-01T00:54:45;11.80;99.90
32865;DHT22;19219;44.500;11.188;2023-04-01T00:57:32;11.90;99.90
32865;DHT22;19219;44.500;11.188;2023-04-01T01:00:03;11.90;99.90
32865;DHT22;19219;44.500;11.188;2023-04-01T01:02:31;11.80;99.90
32865;DHT22;19219;44.500;11.188;2023-04-01T01:04:57;11.80;99.90
32865;DHT22;19219;44.500;11.188;2023-04-01T01:10:44;11.80;99.90
32865;DHT22;19219;44.500;11.188;2023-04-01T01:13:30;11.70;99.90
32865;DHT22;19219;44.500;11.188;2023-04-01T01:16:06;11.60;99.90
32865;DHT22;19219;44.500;11.188;2023-04-01T01:24:11;11.30;99.90
32865;DHT22;19219;44.500;11.188;2023-04-01T01:38:18;10.80;99.90
32865;DHT22;19219;44.500;11.188;2023-04-01T01:40:47;10.70;99.90
32865;DHT22;19219;44.500;11.188;2023-04-01T01:43:16;10.60;99.90
32865;DHT22;19219;44.500;11.188;2023-04-01T01:45:48;10.60;99.90
32865;DHT22;19219;44.500;11.188;2023-04-01T01:48:16;10.40;99.90
32865;DHT22;19219;44.500;11.188;2023-04-01T01:50:44;10.40;99.90
32865;DHT22;19219;44.500;11.188;2023-04-01T01:53:12;10.30;99.90
32865;DHT22;19219;44.500;11.188;2023-04-01T01:55:42;10.30;99.90
32865;DHT22;19219;44.500;11.188;2023-04-01T01:58:32;10.20;99.90
32865;DHT22;19219;44.500;11.188;2023-04-01T02:01:04;10.20;99.90
32865;DHT22;19219;44.500;11.188;2023-04-01T02:03:34;10.10;99.90
32865;DHT22;19219;44.500;11.188;2023-04-01T02:06:04;10.10;99.90
32865;DHT22;19219;44.500;11.188;2023-04-01T02:11:00;10.00;99.90
32865;DHT22;19219;44.500;11.188;2023-04-01T02:13:34;10.00;99.90
32865;DHT22;19219;44.500;11.188;2023-04-01T02:16:05;10.00;99.90
32865;DHT22;19219;44.500;11.188;2023-04-01T02:18:35;10.10;99.90
32865;DHT22;19219;44.500;11.188;2023-04-01T02:21:03;10.10;99.90
32865;DHT22;19219;44.500;11.188;2023-04-01T02:23:33;10.00;99.90
32865;DHT22;19219;44.500;11.188;2023-04-01T02:26:00;10.00;99.90
32865;DHT22;19219;44.500;11.188;2023-04-01T02:28:26;10.00;99.90
32865;DHT22;19219;44.500;11.188;2023-04-01T02:30:53;9.90;99.90
32865;DHT22;19219;44.500;11.188;2023-04-01T02:33:21;9.70;99.90
32865;DHT22;19219;44.500;11.188;2023-04-01T02:35:47;9.50;99.90
32865;DHT22;19219;44.500;11.188;2023-04-01T02:38:13;9.50;99.90
32865;DHT22;19219;44.500;11.188;2023-04-01T02:40:45;9.40;99.90
32865;DHT22;19219;44.500;11.188;2023-04-01T02:43:11;9.50;99.90
32865;DHT22;19219;44.500;11.188;2023-04-01T02:45:36;9.40;99.90
32865;DHT22;19219;44.500;11.188;2023-04-01T02:48:02;9.40;99.90
32865;DHT22;19219;44.500;11.188;2023-04-01T02:50:28;9.40;99.90
32865;DHT22;19219;44.500;11.188;2023-04-01T02:52:54;9.30;99.90
32865;DHT22;19219;44.500;11.188;2023-04-01T02:55:19;9.20;99.90
32865;DHT22;19219;44.500;11.188;2023-04-01T02:57:45;9.20;99.90
32865;DHT22;19219;44.500;11.188;2023-04-01T03:00:11;9.20;99.90
32865;DHT22;19219;44.500;11.188;2023-04-01T03:02:38;9.20;99.90
32865;DHT22;19219;44.500;11.188;2023-04-01T03:05:05;9.20;99.90
32865;DHT22;19219;44.500;11.188;2023-04-01T03:07:31;9.20;99.90
32865;DHT22;19219;44.500;11.188;2023-04-01T03:09:57;9.20;99.90
32865;DHT22;19219;44.500;11.188;2023-04-01T03:12:22;9.10;99.90
32865;DHT22;19219;44.500;11.188;2023-04-01T03:14:48;9.10;99.90
32865;DHT22;19219;44.500;11.188;2023-04-01T03:17:13;9.20;99.90
32865;DHT22;19219;44.500;11.188;2023-04-01T03:19:39;9.20;99.90
32865;DHT22;19219;44.500;11.188;2023-04-01T03:22:05;9.20;99.90
32865;DHT22;19219;44.500;11.188;2023-04-01T03:24:30;9.30;99.90
32865;DHT22;19219;44.500;11.188;2023-04-01T03:26:56;9.20;99.90
32865;DHT22;19219;44.500;11.188;2023-04-01T03:29:22;9.10;99.90
32865;DHT22;19219;44.500;11.188;2023-04-01T03:31:47;9.10;99.90
32865;DHT22;19219;44.500;11.188;2023-04-01T03:34:13;9.00;99.90
32865;DHT22;19219;44.500;11.188;2023-04-01T03:36:39;8.90;99.90
32865;DHT22;19219;44.500;11.188;2023-04-01T03:39:05;8.80;99.90
32865;DHT22;19219;44.500;11.188;2023-04-01T03:41:35;8.70;99.90
32865;DHT22;19219;44.500;11.188;2023-04-01T03:44:01;8.70;99.90
32865;DHT22;19219;44.500;11.188;2023-04-01T03:46:27;8.60;99.90
32865;DHT22;19219;44.500;11.188;2023-04-01T03:48:53;8.60;99.90
32865;DHT22;19219;44.500;11.188;2023-04-01T03:51:18;8.50;99.90
32865;DHT22;19219;44.500;11.188;2023-04-01T03:53:44;8.50;99.90
32865;DHT22;19219;44.500;11.188;2023-04-01T03:56:11;8.60;99.90
32865;DHT22;19219;44.500;11.188;2023-04-01T03:58:37;8.60;99.90
32865;DHT22;19219;44.500;11.188;2023-04-01T04:01:13;8.50;99.90
32865;DHT22;19219;44.500;11.188;2023-04-01T04:03:39;8.40;99.90
32865;DHT22;19219;44.500;11.188;2023-04-01T04:06:05;8.40;99.90
32865;DHT22;19219;44.500;11.188;2023-04-01T04:08:31;8.40;99.90
32865;DHT22;19219;44.500;11.188;2023-04-01T04:10:56;8.50;99.90
32865;DHT22;19219;44.500;11.188;2023-04-01T04:13:22;8.50;99.90
32865;DHT22;19219;44.500;11.188;2023-04-01T04:15:48;8.50;99.90
32865;DHT22;19219;44.500;11.188;2023-04-01T04:18:13;8.50;99.90
32865;DHT22;19219;44.500;11.188;2023-04-01T04:20:46;8.50;99.90
32865;DHT22;19219;44.500;11.188;2023-04-01T04:23:17;8.40;99.90
32865;DHT22;19219;44.500;11.188;2023-04-01T04:25:57;8.20;99.90
32865;DHT22;19219;44.500;11.188;2023-04-01T04:28:24;8.20;99.90
32865;DHT22;19219;44.500;11.188;2023-04-01T04:30:50;8.00;99.90
32865;DHT22;19219;44.500;11.188;2023-04-01T04:33:16;8.00;99.90
32865;DHT22;19219;44.500;11.188;2023-04-01T04:35:41;8.00;99.90
32865;DHT22;19219;44.500;11.188;2023-04-01T04:38:07;8.00;99.90
32865;DHT22;19219;44.500;11.188;2023-04-01T04:40:33;8.00;99.90
32865;DHT22;19219;44.500;11.188;2023-04-01T04:43:00;7.90;99.90
32865;DHT22;19219;44.500;11.188;2023-04-01T04:45:26;7.90;99.90
32865;DHT22;19219;44.500;11.188;2023-04-01T04:47:52;7.90;99.90
32865;DHT22;19219;44.500;11.188;2023-04-01T04:50:17;7.90;99.90
32865;DHT22;19219;44.500;11.188;2023-04-01T04:52:43;7.90;99.90
32865;DHT22;19219;44.500;11.188;2023-04-01T04:55:09;7.90;99.90
32865;DHT22;19219;44.500;11.188;2023-04-01T04:57:34;8.00;99.90
32865;DHT22;19219;44.500;11.188;2023-04-01T05:00:00;8.00;99.90
32865;DHT22;19219;44.500;11.188;2023-04-01T05:02:26;7.90;99.90
32865;DHT22;19219;44.500;11.188;2023-04-01T05:04:51;7.90;99.90
32865;DHT22;19219;44.500;11.188;2023-04-01T05:07:17;7.90;99.90
32865;DHT22;19219;44.500;11.188;2023-04-01T05:09:43;7.90;99.90
32865;DHT22;19219;44.500;11.188;2023-04-01T05:12:11;7.90;99.90
32865;DHT22;19219;44.500;11.188;2023-04-01T05:14:38;7.90;99.90
32865;DHT22;19219;44.500;11.188;2023-04-01T05:17:05;7.80;99.90
32865;DHT22;19219;44.500;11.188;2023-04-01T05:19:33;7.80;99.90
32865;DHT22;19219;44.500;11.188;2023-04-01T05:21:59;7.80;99.90
32865;DHT22;19219;44.500;11.188;2023-04-01T05:24:24;7.80;99.90
32865;DHT22;19219;44.500;11.188;2023-04-01T05:26:50;7.60;99.90
32865;DHT22;19219;44.500;11.188;2023-04-01T05:29:16;7.60;99.90
32865;DHT22;19219;44.500;11.188;2023-04-01T05:31:41;7.60;99.90
32865;DHT22;19219;44.500;11.188;2023-04-01T05:34:07;7.60;99.90
32865;DHT22;19219;44.500;11.188;2023-04-01T05:36:33;7.60;99.90
32865;DHT22;19219;44.500;11.188;2023-04-01T05:38:59;7.70;99.90
32865;DHT22;19219;44.500;11.188;2023-04-01T05:41:25;7.90;99.90
32865;DHT22;19219;44.500;11.188;2023-04-01T05:43:51;8.00;99.90
32865;DHT22;19219;44.500;11.188;2023-04-01T05:46:16;8.20;99.90
32865;DHT22;19219;44.500;11.188;2023-04-01T05:48:42;8.30;99.90
32865;DHT22;19219;44.500;11.188;2023-04-01T05:51:13;8.40;99.90
32865;DHT22;19219;44.500;11.188;2023-04-01T05:53:39;8.50;99.90
32865;DHT22;19219;44.500;11.188;2023-04-01T05:56:05;8.60;99.90
32865;DHT22;19219;44.500;11.188;2023-04-01T05:58:31;8.70;99.90
32865;DHT22;19219;44.500;11.188;2023-04-01T06:01:05;8.80;99.90
32865;DHT22;19219;44.500;11.188;2023-04-01T06:03:32;8.90;99.90
32865;DHT22;19219;44.500;11.188;2023-04-01T06:05:57;8.90;99.90
32865;DHT22;19219;44.500;11.188;2023-04-01T06:08:24;9.10;99.90
32865;DHT22;19219;44.500;11.188;2023-04-01T06:14:00;9.50;99.90
32865;DHT22;19219;44.500;11.188;2023-04-01T06:16:45;9.70;99.90
32865;DHT22;19219;44.500;11.188;2023-04-01T06:25:10;10.50;99.90
32865;DHT22;19219;44.500;11.188;2023-04-01T06:33:11;16.30;99.90
32865;DHT22;19219;44.500;11.188;2023-04-01T06:52:14;22.40;99.60
32865;DHT22;19219;44.500;11.188;2023-04-01T06:54:51;23.30;99.40
32865;DHT22;19219;44.500;11.188;2023-04-01T06:57:29;24.20;97.70
32865;DHT22;19219;44.500;11.188;2023-04-01T07:00:00;24.60;95.50
32865;DHT22;19219;44.500;11.188;2023-04-01T07:02:39;24.20;94.20
32865;DHT22;19219;44.500;11.188;2023-04-01T07:05:07;23.90;94.30
32865;DHT22;19219;44.500;11.188;2023-04-01T07:07:52;23.70;95.20
32865;DHT22;19219;44.500;11.188;2023-04-01T07:13:10;24.50;93.70
32865;DHT22;19219;44.500;11.188;2023-04-01T07:15:43;25.00;91.50
32865;DHT22;19219;44.500;11.188;2023-04-01T07:18:16;24.40;92.30
32865;DHT22;19219;44.500;11.188;2023-04-01T07:20:43;25.30;90.80
32865;DHT22;19219;44.500;11.188;2023-04-01T07:23:38;26.60;82.80
32865;DHT22;19219;44.500;11.188;2023-04-01T07:26:15;26.50;73.60
32865;DHT22;19219;44.500;11.188;2023-04-01T07:28:42;26.80;72.70
32865;DHT22;19219;44.500;11.188;2023-04-01T07:34:06;26.80;68.00
32865;DHT22;19219;44.500;11.188;2023-04-01T07:36:48;27.30;67.00
32865;DHT22;19219;44.500;11.188;2023-04-01T07:45:31;28.90;59.20
32865;DHT22;19219;44.500;11.188;2023-04-01T07:50:59;28.70;59.00
32865;DHT22;19219;44.500;11.188;2023-04-01T07:56:32;27.90;60.80
32865;DHT22;19219;44.500;11.188;2023-04-01T08:12:27;28.20;57.60
32865;DHT22;19219;44.500;11.188;2023-04-01T08:15:15;28.60;58.90
32865;DHT22;19219;44.500;11.188;2023-04-01T08:20:50;27.60;58.00
32865;DHT22;19219;44.500;11.188;2023-04-01T08:23:17;26.70;59.00
32865;DHT22;19219;44.500;11.188;2023-04-01T08:25:52;25.60;61.90
32865;DHT22;19219;44.500;11.188;2023-04-01T08:28:24;24.50;64.70
32865;DHT22;19219;44.500;11.188;2023-04-01T08:33:29;23.40;68.90
32865;DHT22;19219;44.500;11.188;2023-04-01T08:36:12;23.20;68.90
32865;DHT22;19219;44.500;11.188;2023-04-01T08:38:54;22.70;71.20
32865;DHT22;19219;44.500;11.188;2023-04-01T08:46:56;22.20;77.00
32865;DHT22;19219;44.500;11.188;2023-04-01T09:00:21;22.40;78.30
32865;DHT22;19219;44.500;11.188;2023-04-01T09:19:35;22.60;82.10
32865;DHT22;19219;44.500;11.188;2023-04-01T09:28:46;22.80;81.90
32865;DHT22;19219;44.500;11.188;2023-04-01T09:39:03;22.90;81.30
32865;DHT22;19219;44.500;11.188;2023-04-01T09:44:36;22.80;81.60
32865;DHT22;19219;44.500;11.188;2023-04-01T09:50:20;23.10;81.90
32865;DHT22;19219;44.500;11.188;2023-04-01T09:55:40;23.20;79.40
32865;DHT22;19219;44.500;11.188;2023-04-01T10:07:10;22.80;75.00
32865;DHT22;19219;44.500;11.188;2023-04-01T10:12:40;22.80;73.50
32865;DHT22;19219;44.500;11.188;2023-04-01T10:21:11;23.40;74.90
32865;DHT22;19219;44.500;11.188;2023-04-01T10:32:17;23.50;73.70
32865;DHT22;19219;44.500;11.188;2023-04-01T11:23:11;22.60;67.40
32865;DHT22;19219;44.500;11.188;2023-04-01T11:25:55;22.70;65.60
32865;DHT22;19219;44.500;11.188;2023-04-01T11:28:39;22.90;67.10
32865;DHT22;19219;44.500;11.188;2023-04-01T11:37:12;23.10;66.90
32865;DHT22;19219;44.500;11.188;2023-04-01T11:43:07;23.10;65.50
32865;DHT22;19219;44.500;11.188;2023-04-01T11:45:36;23.20;65.20
32865;DHT22;19219;44.500;11.188;2023-04-01T11:56:44;23.00;62.40
32865;DHT22;19219;44.500;11.188;2023-04-01T12:05:15;22.80;55.70
32865;DHT22;19219;44.500;11.188;2023-04-01T12:20:50;22.80;59.40
32865;DHT22;19219;44.500;11.188;2023-04-01T12:34:22;22.30;54.00
32865;DHT22;19219;44.500;11.188;2023-04-01T13:02:28;22.40;49.20
32865;DHT22;19219;44.500;11.188;2023-04-01T13:13:44;22.50;53.50
32865;DHT22;19219;44.500;11.188;2023-04-01T13:16:19;22.50;53.20
32865;DHT22;19219;44.500;11.188;2023-04-01T13:19:05;22.40;48.60
32865;DHT22;19219;44.500;11.188;2023-04-01T13:30:02;22.60;45.50
32865;DHT22;19219;44.500;11.188;2023-04-01T14:05:39;22.60;45.60
32865;DHT22;19219;44.500;11.188;2023-04-01T14:29:36;23.10;46.00
32865;DHT22;19219;44.500;11.188;2023-04-01T14:40:49;22.80;42.90
32865;DHT22;19219;44.500;11.188;2023-04-01T14:49:00;22.90;41.60
32865;DHT22;19219;44.500;11.188;2023-04-01T14:54:17;23.10;43.30
32865;DHT22;19219;44.500;11.188;2023-04-01T14:57:15;23.10;42.90
32865;DHT22;19219;44.500;11.188;2023-04-01T15:02:57;23.30;43.20
32865;DHT22;19219;44.500;11.188;2023-04-01T15:08:30;23.30;42.70
32865;DHT22;19219;44.500;11.188;2023-04-01T15:16:34;23.40;43.60
32865;DHT22;19219;44.500;11.188;2023-04-01T15:19:10;23.40;44.00
32865;DHT22;19219;44.500;11.188;2023-04-01T15:27:07;22.30;44.60
32865;DHT22;19219;44.500;11.188;2023-04-01T15:29:46;22.10;43.50
32865;DHT22;19219;44.500;11.188;2023-04-01T15:32:29;22.30;44.70
32865;DHT22;19219;44.500;11.188;2023-04-01T15:38:04;22.70;45.20
32865;DHT22;19219;44.500;11.188;2023-04-01T15:40:46;22.70;46.60
32865;DHT22;19219;44.500;11.188;2023-04-01T16:00:04;21.50;44.70
32865;DHT22;19219;44.500;11.188;2023-04-01T16:02:38;21.10;48.50
32865;DHT22;19219;44.500;11.188;2023-04-01T16:05:31;20.70;51.20
32865;DHT22;19219;44.500;11.188;2023-04-01T16:19:44;20.00;57.00
32865;DHT22;19219;44.500;11.188;2023-04-01T16:22:35;19.90;57.00
32865;DHT22;19219;44.500;11.188;2023-04-01T16:25:33;19.70;57.30
32865;DHT22;19219;44.500;11.188;2023-04-01T16:28:31;19.60;56.60
32865;DHT22;19219;44.500;11.188;2023-04-01T16:31:08;19.40;56.80
32865;DHT22;19219;44.500;11.188;2023-04-01T16:33:46;19.30;56.80
32865;DHT22;19219;44.500;11.188;2023-04-01T16:39:19;19.20;58.20
32865;DHT22;19219;44.500;11.188;2023-04-01T16:41:52;19.10;57.20
32865;DHT22;19219;44.500;11.188;2023-04-01T16:44:25;18.90;58.00
32865;DHT22;19219;44.500;11.188;2023-04-01T16:46:54;18.90;58.20
32865;DHT22;19219;44.500;11.188;2023-04-01T16:49:39;18.70;57.80
32865;DHT22;19219;44.500;11.188;2023-04-01T16:52:17;18.50;57.90
32865;DHT22;19219;44.500;11.188;2023-04-01T16:55:01;18.40;59.10
32865;DHT22;19219;44.500;11.188;2023-04-01T16:57:58;18.30;58.50
32865;DHT22;19219;44.500;11.188;2023-04-01T17:00:36;18.10;59.30
32865;DHT22;19219;44.500;11.188;2023-04-01T17:08:14;17.80;60.90
32865;DHT22;19219;44.500;11.188;2023-04-01T17:24:37;17.20;65.00
32865;DHT22;19219;44.500;11.188;2023-04-01T17:41:28;16.60;70.80
32865;DHT22;19219;44.500;11.188;2023-04-01T17:52:44;16.20;74.10
32865;DHT22;19219;44.500;11.188;2023-04-01T17:55:29;16.20;74.80
32865;DHT22;19219;44.500;11.188;2023-04-01T17:58:22;16.10;75.10
32865;DHT22;19219;44.500;11.188;2023-04-01T18:01:24;16.10;76.30
32865;DHT22;19219;44.500;11.188;2023-04-01T18:04:08;16.00;77.10
32865;DHT22;19219;44.500;11.188;2023-04-01T18:23:36;15.70;79.30
32865;DHT22;19219;44.500;11.188;2023-04-01T18:26:20;15.70;78.80
32865;DHT22;19219;44.500;11.188;2023-04-01T18:31:46;15.60;79.50
32865;DHT22;19219;44.500;11.188;2023-04-01T18:40:03;15.50;80.40
32865;DHT22;19219;44.500;11.188;2023-04-01T18:46:00;15.40;80.80
32865;DHT22;19219;44.500;11.188;2023-04-01T18:48:55;15.30;81.40
32865;DHT22;19219;44.500;11.188;2023-04-01T18:54:02;15.20;81.40
32865;DHT22;19219;44.500;11.188;2023-04-01T18:56:39;15.20;81.70
32865;DHT22;19219;44.500;11.188;2023-04-01T18:59:37;15.20;81.70
32865;DHT22;19219;44.500;11.188;2023-04-01T19:02:36;15.10;82.30
32865;DHT22;19219;44.500;11.188;2023-04-01T19:05:19;15.10;82.40
32865;DHT22;19219;44.500;11.188;2023-04-01T19:07:54;15.10;83.10
32865;DHT22;19219;44.500;11.188;2023-04-01T19:16:21;15.00;83.70
32865;DHT22;19219;44.500;11.188;2023-04-01T19:21:58;14.90;84.90
32865;DHT22;19219;44.500;11.188;2023-04-01T19:30:00;14.80;85.10
32865;DHT22;19219;44.500;11.188;2023-04-01T19:38:22;14.90;86.10
32865;DHT22;19219;44.500;11.188;2023-04-01T19:41:04;14.90;86.70
32865;DHT22;19219;44.500;11.188;2023-04-01T19:46:32;14.90;88.90
32865;DHT22;19219;44.500;11.188;2023-04-01T19:55:28;14.80;90.70
32865;DHT22;19219;44.500;11.188;2023-04-01T20:00:57;14.80;91.50
32865;DHT22;19219;44.500;11.188;2023-04-01T20:03:44;14.70;91.50
32865;DHT22;19219;44.500;11.188;2023-04-01T20:12:31;14.60;92.40
32865;DHT22;19219;44.500;11.188;2023-04-01T20:14:57;14.50;93.00
32865;DHT22;19219;44.500;11.188;2023-04-01T20:17:40;14.50;92.80
32865;DHT22;19219;44.500;11.188;2023-04-01T20:25:46;14.50;93.30
32865;DHT22;19219;44.500;11.188;2023-04-01T20:31:04;14.40;94.00
32865;DHT22;19219;44.500;11.188;2023-04-01T20:33:52;14.40;94.00
32865;DHT22;19219;44.500;11.188;2023-04-01T20:36:34;14.40;94.40
32865;DHT22;19219;44.500;11.188;2023-04-01T20:47:03;14.40;94.70
32865;DHT22;19219;44.500;11.188;2023-04-01T21:03:48;14.40;94.90
32865;DHT22;19219;44.500;11.188;2023-04-01T21:11:51;14.50;95.20
32865;DHT22;19219;44.500;11.188;2023-04-01T21:17:26;14.40;95.60
32865;DHT22;19219;44.500;11.188;2023-04-01T21:22:49;14.40;96.00
32865;DHT22;19219;44.500;11.188;2023-04-01T21:44:43;14.30;97.50
32865;DHT22;19219;44.500;11.188;2023-04-01T21:50:47;14.20;98.00
32865;DHT22;19219;44.500;11.188;2023-04-01T22:02:42;14.40;97.40
32865;DHT22;19219;44.500;11.188;2023-04-01T22:04:56;14.40;97.40
32865;DHT22;19219;44.500;11.188;2023-04-01T22:07:47;14.40;97.50
32865;DHT22;19219;44.500;11.188;2023-04-01T22:10:30;14.30;97.50
32865;DHT22;19219;44.500;11.188;2023-04-01T22:13:10;14.40;97.70
32865;DHT22;19219;44.500;11.188;2023-04-01T22:18:32;14.40;97.80
32865;DHT22;19219;44.500;11.188;2023-04-01T22:24:11;14.30;97.50
32865;DHT22;19219;44.500;11.188;2023-04-01T22:26:49;14.30;97.70
32865;DHT22;19219;44.500;11.188;2023-04-01T22:37:40;14.20;97.40
32865;DHT22;19219;44.500;11.188;2023-04-01T22:45:16;14.20;97.60
32865;DHT22;19219;44.500;11.188;2023-04-01T22:48:08;14.20;98.00
32865;DHT22;19219;44.500;11.188;2023-04-01T22:50:50;14.10;97.90
32865;DHT22;19219;44.500;11.188;2023-04-01T22:56:01;14.10;98.40
32865;DHT22;19219;44.500;11.188;2023-04-01T22:58:35;14.10;98.80
32865;DHT22;19219;44.500;11.188;2023-04-01T23:01:07;14.10;99.10
32865;DHT22;19219;44.500;11.188;2023-04-01T23:03:40;14.00;99.20
32865;DHT22;19219;44.500;11.188;2023-04-01T23:06:16;14.20;99.50
32865;DHT22;19219;44.500;11.188;2023-04-01T23:09:05;14.10;99.90
32865;DHT22;19219;44.500;11.188;2023-04-01T23:17:03;14.00;99.90
32865;DHT22;19219;44.500;11.188;2023-04-01T23:29:59;13.90;99.90
32865;DHT22;19219;44.500;11.188;2023-04-01T23:32:25;13.90;99.90
32865;DHT22;19219;44.500;11.188;2023-04-01T23:34:59;13.90;99.90
32865;DHT22;19219;44.500;11.188;2023-04-01T23:37:26;13.90;99.90
32865;DHT22;19219;44.500;11.188;2023-04-01T23:39:54;14.00;99.90
32865;DHT22;19219;44.500;11.188;2023-04-01T23:44:55;14.10;99.90
32865;DHT22;19219;44.500;11.188;2023-04-01T23:47:24;14.00;99.90
32865;DHT22;19219;44.500;11.188;2023-04-01T23:50:14;14.00;99.90
32865;DHT22;19219;44.500;11.188;2023-04-01T23:53:03;14.00;99.90
32865;DHT22;19219;44.500;11.188;2023-04-01T23:55:33;13.90;99.90
